AirNav   Phillips 66 Aviation Fuel
 
 1078 users online  

OR90 Lafayette Airstrip
Lafayette, Oregon, USA

GOING TO LAFAYETTE?


FAA INFORMATION EFFECTIVE 08 NOVEMBER 2018

Location

FAA Identifier: OR90
Lat/Long: 45-14-39.4190N / 123-07-44.3750W
45-14.656983N / 123-07.739583W
45.2442831 / -123.1289931
(estimated)
Elevation: 160 ft. / 49 m (estimated)
Variation: 19E (1985)
From city: 1 mile W of LAFAYETTE, OR
Time zone: UTC -8 (UTC -7 during Daylight Saving Time)
Zip code: 97128

Airport Operations

Airport use: Private use. Permission required prior to landing
Control tower: no
ARTCC: SEATTLE CENTER
FSS: MC MINNVILLE FLIGHT SERVICE STATION
Attendance: CONTINUOUS
Wind indicator: no
Segmented circle: no

Airport Communications

WX ASOS at MMV (3 nm S): 135.675 (503-434-9153)
WX ASOS at UAO (15 nm E): PHONE 503-678-3011
WX ASOS at HIO (19 nm NE): PHONE 503-640-2984

Nearby radio navigation aids

VOR radial/distance  VOR name  Freq  Var
UBGr203/9.1NEWBERG VOR/DME117.4021E
BTGr196/37.7BATTLE GROUND VORTAC116.6021E

 
NDB name  Hdg/Dist  Freq  Var  ID
BANKS173/23.435616EPND .--. -. -..
LEWISBURG354/38.322515ELWG .-.. .-- --.

Airport Services

Airframe service: NONE
Powerplant service: NONE

Runway Information

Runway 3/21

Dimensions: 2700 x 70 ft. / 823 x 21 m
Surface: turf/gravel
RUNWAY 3  RUNWAY 21
Traffic pattern: leftright

Airport Ownership and Management from official FAA records

Ownership: Privately-owned
Owner: HELEN WEEKS
11200 N HWY 99 W
MC MINNVILLE, OR 97128
Phone 503-864-2456

Airport Operational Statistics

Aircraft based on the field: 3
Single engine airplanes: 3
    

Additional Remarks

FOR CD CTC PORTLAND APCH AT 503-493-7545.

Instrument Procedures

There are no published instrument procedures at OR90.

Some nearby airports with instrument procedures:

KMMV - Mc Minnville Municipal Airport (3 nm S)
KUAO - Aurora State Airport (15 nm E)
KHIO - Portland-Hillsboro Airport (19 nm NE)
KSLE - McNary Field Airport (21 nm S)
KVUO - Pearson Field Airport (30 nm NE)
 
Loc | Ops | Rwys | IFR | FBO | Links
Com | Nav | Svcs | Stats | Notes


 
Area around OR90 (Lafayette Airstrip)
 
Road maps at: MapQuest Bing Google
 
Aerial photo
WARNING: Photo may not be current or correct
Aerial photo of OR90 (Lafayette Airstrip)
Photo taken 21-Jul-2002

Do you have a better or more recent aerial photo of Lafayette Airstrip that you would like to share? If so, please send us your photo.

 
Sectional chart

 
Airport distance calculator
Flying to Lafayette Airstrip? Find the distance to fly.

From to OR90

Sunrise and sunset
Times for 19-Nov-2018
 Local
(UTC-8)
 Zulu
(UTC)
Morning civil twilight06:4514:45
Sunrise07:1715:17
Sunset16:3800:38
Evening civil twilight17:1101:11

Current date and time
Zulu (UTC)  19-Nov-2018 23:07:57
Local (UTC-8)  19-Nov-2018 15:07:57
 
METAR
KMMV 
3nm S 
192253Z AUTO 34005KT 10SM CLR 13/02 A3006 RMK AO2 SLP178 T01330022
KUAO 
15nm E 
192253Z 32003KT 10SM CLR 15/02 A3006 RMK AO2 SLP180 T01500017
KHIO 
20nm N 
192253Z 05003KT 10SM CLR 15/01 A3006 RMK AO2 SLP182 T01500011
TAF
KUAO 
15nm E 
191726Z 1918/2018 VRB03KT P6SM SKC FM200300 VRB04KT P6SM SKC FM200600 09005KT P6SM SKC
KHIO 
20nm N 
191726Z 1918/2018 VRB03KT P6SM SKC FM192000 VRB03KT P6SM SKC FM200500 00000KT P6SM SKC
NOTAMs
Click for the latest NOTAMs
NOTAMs are issued by the DoD/FAA and will open in a separate window not controlled by AirNav.

 

 
 

Would you like to see your business listed on this page?

 If your business provides an interesting product or service to pilots, flight crews, aircraft, or users of the Lafayette Airstrip, you should consider listing it here.  To start the listing process, click on the button below
 
Add a business
 

Other Pages about Lafayette Airstrip

Update a link
 
Copyright © AirNav, LLC. All rights reserved. Privacy Policy  Contact